sensor_id;sensor_type;location;lat;lon;timestamp;pressure;altitude;pressure_sealevel;temperature;humidity
38718;BME280;24468;52.128;9.278;2023-05-16T00:01:27;100604.31;;;10.58;100.00
38718;BME280;24468;52.128;9.278;2023-05-16T00:03:57;100605.28;;;10.57;100.00
38718;BME280;24468;52.128;9.278;2023-05-16T00:06:22;100609.16;;;10.29;100.00
38718;BME280;24468;52.128;9.278;2023-05-16T00:08:48;100625.06;;;10.35;100.00
38718;BME280;24468;52.128;9.278;2023-05-16T00:11:16;100609.63;;;10.39;100.00
38718;BME280;24468;52.128;9.278;2023-05-16T00:13:41;100608.56;;;10.63;100.00
38718;BME280;24468;52.128;9.278;2023-05-16T00:16:07;100597.50;;;10.49;100.00
38718;BME280;24468;52.128;9.278;2023-05-16T00:18:33;100601.06;;;10.50;100.00
38718;BME280;24468;52.128;9.278;2023-05-16T00:21:04;100597.25;;;10.55;100.00
38718;BME280;24468;52.128;9.278;2023-05-16T00:23:31;100591.66;;;10.60;100.00
38718;BME280;24468;52.128;9.278;2023-05-16T00:25:56;100591.72;;;10.58;100.00
38718;BME280;24468;52.128;9.278;2023-05-16T00:28:22;100595.69;;;10.50;100.00
38718;BME280;24468;52.128;9.278;2023-05-16T00:30:48;100601.91;;;10.52;100.00
38718;BME280;24468;52.128;9.278;2023-05-16T00:33:13;100601.94;;;10.50;100.00
38718;BME280;24468;52.128;9.278;2023-05-16T00:35:39;100599.66;;;10.41;100.00
38718;BME280;24468;52.128;9.278;2023-05-16T00:38:05;100613.25;;;10.60;100.00
38718;BME280;24468;52.128;9.278;2023-05-16T00:40:31;100596.50;;;10.52;100.00
38718;BME280;24468;52.128;9.278;2023-05-16T00:42:56;100598.38;;;10.50;100.00
38718;BME280;24468;52.128;9.278;2023-05-16T00:45:22;100599.25;;;10.50;100.00
38718;BME280;24468;52.128;9.278;2023-05-16T00:47:47;100589.09;;;10.57;100.00
38718;BME280;24468;52.128;9.278;2023-05-16T00:50:13;100587.31;;;10.56;100.00
38718;BME280;24468;52.128;9.278;2023-05-16T00:52:39;100598.25;;;10.53;100.00
38718;BME280;24468;52.128;9.278;2023-05-16T00:55:06;100591.28;;;10.47;100.00
38718;BME280;24468;52.128;9.278;2023-05-16T00:57:31;100600.75;;;10.57;100.00
38718;BME280;24468;52.128;9.278;2023-05-16T00:59:57;100602.59;;;10.57;100.00
38718;BME280;24468;52.128;9.278;2023-05-16T01:02:23;100594.84;;;10.70;100.00
38718;BME280;24468;52.128;9.278;2023-05-16T01:04:52;100606.06;;;10.38;100.00
38718;BME280;24468;52.128;9.278;2023-05-16T01:07:18;100601.75;;;10.55;100.00
38718;BME280;24468;52.128;9.278;2023-05-16T01:09:44;100598.25;;;10.53;100.00
38718;BME280;24468;52.128;9.278;2023-05-16T01:12:44;100602.03;;;10.49;100.00
38718;BME280;24468;52.128;9.278;2023-05-16T01:15:24;100609.84;;;10.34;100.00
38718;BME280;24468;52.128;9.278;2023-05-16T01:18:23;100605.31;;;10.35;100.00
38718;BME280;24468;52.128;9.278;2023-05-16T01:21:03;100609.50;;;10.42;100.00
38718;BME280;24468;52.128;9.278;2023-05-16T01:23:50;100612.19;;;10.42;100.00
38718;BME280;24468;52.128;9.278;2023-05-16T01:26:25;100603.59;;;10.54;100.00
38718;BME280;24468;52.128;9.278;2023-05-16T01:28:52;100617.22;;;10.51;100.00
38718;BME280;24468;52.128;9.278;2023-05-16T01:31:19;100610.25;;;10.66;100.00
38718;BME280;24468;52.128;9.278;2023-05-16T01:33:45;100601.16;;;10.89;100.00
38718;BME280;24468;52.128;9.278;2023-05-16T01:39:21;100598.94;;;10.58;100.00
38718;BME280;24468;52.128;9.278;2023-05-16T01:42:08;100607.66;;;10.64;100.00
38718;BME280;24468;52.128;9.278;2023-05-16T01:45:01;100616.44;;;10.70;100.00
38718;BME280;24468;52.128;9.278;2023-05-16T01:47:31;100616.41;;;10.49;100.00
38718;BME280;24468;52.128;9.278;2023-05-16T01:50:20;100617.75;;;10.59;100.00
38718;BME280;24468;52.128;9.278;2023-05-16T01:53:06;100619.78;;;10.54;100.00
38718;BME280;24468;52.128;9.278;2023-05-16T01:55:47;100626.44;;;10.66;100.00
38718;BME280;24468;52.128;9.278;2023-05-16T01:58:18;100622.16;;;10.62;100.00
38718;BME280;24468;52.128;9.278;2023-05-16T02:00:44;100609.38;;;10.65;100.00
38718;BME280;24468;52.128;9.278;2023-05-16T02:03:10;100624.16;;;10.77;100.00
38718;BME280;24468;52.128;9.278;2023-05-16T02:05:35;100617.06;;;10.75;100.00
38718;BME280;24468;52.128;9.278;2023-05-16T02:08:01;100621.47;;;10.77;100.00
38718;BME280;24468;52.128;9.278;2023-05-16T02:10:27;100625.97;;;10.77;100.00
38718;BME280;24468;52.128;9.278;2023-05-16T02:12:52;100623.28;;;10.77;100.00
38718;BME280;24468;52.128;9.278;2023-05-16T02:15:18;100623.22;;;10.99;100.00
38718;BME280;24468;52.128;9.278;2023-05-16T02:17:44;100621.13;;;10.85;100.00
38718;BME280;24468;52.128;9.278;2023-05-16T02:20:10;100607.88;;;10.99;100.00
38718;BME280;24468;52.128;9.278;2023-05-16T02:22:36;100619.53;;;10.81;100.00
38718;BME280;24468;52.128;9.278;2023-05-16T02:25:04;100626.00;;;10.56;100.00
38718;BME280;24468;52.128;9.278;2023-05-16T02:27:30;100625.84;;;10.59;100.00
38718;BME280;24468;52.128;9.278;2023-05-16T02:29:56;100625.72;;;10.62;100.00
38718;BME280;24468;52.128;9.278;2023-05-16T02:32:22;100631.38;;;10.56;100.00
38718;BME280;24468;52.128;9.278;2023-05-16T02:34:47;100626.25;;;10.71;100.00
38718;BME280;24468;52.128;9.278;2023-05-16T02:37:13;100638.78;;;10.51;100.00
38718;BME280;24468;52.128;9.278;2023-05-16T02:39:38;100642.13;;;10.36;100.00
38718;BME280;24468;52.128;9.278;2023-05-16T02:42:05;100630.00;;;10.46;100.00
38718;BME280;24468;52.128;9.278;2023-05-16T02:44:31;100631.94;;;10.64;100.00
38718;BME280;24468;52.128;9.278;2023-05-16T02:46:57;100635.72;;;10.38;100.00
38718;BME280;24468;52.128;9.278;2023-05-16T02:49:22;100641.44;;;10.31;100.00
38718;BME280;24468;52.128;9.278;2023-05-16T02:51:48;100637.03;;;10.28;100.00
38718;BME280;24468;52.128;9.278;2023-05-16T02:54:14;100641.25;;;10.35;100.00
38718;BME280;24468;52.128;9.278;2023-05-16T02:56:39;100663.38;;;10.21;100.00
38718;BME280;24468;52.128;9.278;2023-05-16T02:59:05;100648.94;;;10.22;100.00
38718;BME280;24468;52.128;9.278;2023-05-16T03:01:31;100647.81;;;10.50;100.00
38718;BME280;24468;52.128;9.278;2023-05-16T03:03:56;100645.09;;;10.30;100.00
38718;BME280;24468;52.128;9.278;2023-05-16T03:06:22;100653.03;;;10.33;100.00
38718;BME280;24468;52.128;9.278;2023-05-16T03:08:47;100665.88;;;10.26;100.00
38718;BME280;24468;52.128;9.278;2023-05-16T03:11:17;100655.78;;;10.09;100.00
38718;BME280;24468;52.128;9.278;2023-05-16T03:13:46;100673.88;;;10.06;100.00
38718;BME280;24468;52.128;9.278;2023-05-16T03:16:12;100668.69;;;10.01;100.00
38718;BME280;24468;52.128;9.278;2023-05-16T03:18:38;100670.25;;;9.85;100.00
38718;BME280;24468;52.128;9.278;2023-05-16T03:21:04;100682.06;;;9.80;100.00
38718;BME280;24468;52.128;9.278;2023-05-16T03:23:29;100674.56;;;9.89;100.00
38718;BME280;24468;52.128;9.278;2023-05-16T03:25:55;100674.09;;;10.01;100.00
38718;BME280;24468;52.128;9.278;2023-05-16T03:28:20;100677.72;;;10.00;100.00
38718;BME280;24468;52.128;9.278;2023-05-16T03:30:46;100668.44;;;9.85;100.00
38718;BME280;24468;52.128;9.278;2023-05-16T03:33:12;100684.00;;;9.77;100.00
38718;BME280;24468;52.128;9.278;2023-05-16T03:35:38;100684.66;;;9.60;100.00
38718;BME280;24468;52.128;9.278;2023-05-16T03:38:04;100684.50;;;9.87;100.00
38718;BME280;24468;52.128;9.278;2023-05-16T03:40:30;100686.34;;;9.86;100.00
38718;BME280;24468;52.128;9.278;2023-05-16T03:42:56;100681.78;;;10.10;100.00
38718;BME280;24468;52.128;9.278;2023-05-16T03:45:21;100681.78;;;9.88;100.00
38718;BME280;24468;52.128;9.278;2023-05-16T03:47:50;100688.03;;;9.89;100.00
38718;BME280;24468;52.128;9.278;2023-05-16T03:50:16;100684.63;;;10.07;100.00
38718;BME280;24468;52.128;9.278;2023-05-16T03:52:41;100693.31;;;9.92;100.00
38718;BME280;24468;52.128;9.278;2023-05-16T03:55:07;100691.84;;;10.07;100.00
38718;BME280;24468;52.128;9.278;2023-05-16T03:57:35;100700.41;;;9.71;100.00
38718;BME280;24468;52.128;9.278;2023-05-16T04:00:03;100709.19;;;9.76;100.00
38718;BME280;24468;52.128;9.278;2023-05-16T04:02:31;100706.19;;;9.84;100.00
38718;BME280;24468;52.128;9.278;2023-05-16T04:04:56;100702.78;;;9.78;100.00
38718;BME280;24468;52.128;9.278;2023-05-16T04:07:22;100703.63;;;10.04;100.00
38718;BME280;24468;52.128;9.278;2023-05-16T04:09:47;100715.97;;;9.86;100.00
38718;BME280;24468;52.128;9.278;2023-05-16T04:12:13;100718.28;;;10.19;100.00
38718;BME280;24468;52.128;9.278;2023-05-16T04:14:39;100716.59;;;10.40;100.00
38718;BME280;24468;52.128;9.278;2023-05-16T04:17:04;100720.13;;;10.18;100.00
38718;BME280;24468;52.128;9.278;2023-05-16T04:19:30;100728.31;;;10.15;100.00
38718;BME280;24468;52.128;9.278;2023-05-16T04:21:55;100731.28;;;10.09;100.00
38718;BME280;24468;52.128;9.278;2023-05-16T04:24:21;100732.47;;;10.00;100.00
38718;BME280;24468;52.128;9.278;2023-05-16T04:26:50;100751.00;;;10.10;100.00
38718;BME280;24468;52.128;9.278;2023-05-16T04:29:16;100747.19;;;10.15;100.00
38718;BME280;24468;52.128;9.278;2023-05-16T04:31:42;100744.13;;;10.24;100.00
38718;BME280;24468;52.128;9.278;2023-05-16T04:34:07;100751.47;;;9.97;100.00
38718;BME280;24468;52.128;9.278;2023-05-16T04:36:33;100754.13;;;9.99;100.00
38718;BME280;24468;52.128;9.278;2023-05-16T04:39:00;100750.34;;;10.03;100.00
38718;BME280;24468;52.128;9.278;2023-05-16T04:41:25;100755.75;;;10.03;100.00
38718;BME280;24468;52.128;9.278;2023-05-16T04:43:51;100762.06;;;9.78;100.00
38718;BME280;24468;52.128;9.278;2023-05-16T04:46:17;100760.16;;;10.06;100.00
38718;BME280;24468;52.128;9.278;2023-05-16T04:48:42;100769.47;;;9.97;100.00
38718;BME280;24468;52.128;9.278;2023-05-16T04:51:08;100763.84;;;9.79;100.00
38718;BME280;24468;52.128;9.278;2023-05-16T04:53:33;100773.31;;;9.90;100.00
38718;BME280;24468;52.128;9.278;2023-05-16T04:55:59;100749.78;;;10.18;100.00
38718;BME280;24468;52.128;9.278;2023-05-16T04:58:25;100774.97;;;9.94;100.00
38718;BME280;24468;52.128;9.278;2023-05-16T05:00:51;100770.13;;;10.27;100.00
38718;BME280;24468;52.128;9.278;2023-05-16T05:03:17;100771.97;;;10.25;100.00
38718;BME280;24468;52.128;9.278;2023-05-16T05:05:42;100773.69;;;10.04;100.00
38718;BME280;24468;52.128;9.278;2023-05-16T05:08:08;100783.03;;;10.17;100.00
38718;BME280;24468;52.128;9.278;2023-05-16T05:10:34;100785.06;;;9.89;100.00
38718;BME280;24468;52.128;9.278;2023-05-16T05:13:00;100795.47;;;9.98;100.00
38718;BME280;24468;52.128;9.278;2023-05-16T05:15:26;100786.59;;;9.96;100.00
38718;BME280;24468;52.128;9.278;2023-05-16T05:17:51;100774.31;;;10.11;100.00
38718;BME280;24468;52.128;9.278;2023-05-16T05:20:17;100795.78;;;9.90;100.00
38718;BME280;24468;52.128;9.278;2023-05-16T05:22:42;100780.53;;;10.36;100.00
38718;BME280;24468;52.128;9.278;2023-05-16T05:25:08;100799.53;;;10.57;100.00
38718;BME280;24468;52.128;9.278;2023-05-16T05:27:34;100818.22;;;10.14;100.00
38718;BME280;24468;52.128;9.278;2023-05-16T05:30:00;100810.00;;;9.94;100.00
38718;BME280;24468;52.128;9.278;2023-05-16T05:32:26;100815.41;;;9.94;100.00
38718;BME280;24468;52.128;9.278;2023-05-16T05:34:51;100828.59;;;9.51;100.00
38718;BME280;24468;52.128;9.278;2023-05-16T05:37:17;100820.00;;;9.67;100.00
38718;BME280;24468;52.128;9.278;2023-05-16T05:39:43;100833.00;;;10.04;100.00
38718;BME280;24468;52.128;9.278;2023-05-16T05:42:09;100834.63;;;9.85;100.00
38718;BME280;24468;52.128;9.278;2023-05-16T05:44:36;100828.41;;;9.57;100.00
38718;BME280;24468;52.128;9.278;2023-05-16T05:47:02;100840.72;;;9.65;100.00
38718;BME280;24468;52.128;9.278;2023-05-16T05:49:28;100847.28;;;9.57;100.00
38718;BME280;24468;52.128;9.278;2023-05-16T05:51:54;100838.44;;;9.79;100.00
38718;BME280;24468;52.128;9.278;2023-05-16T05:54:20;100846.47;;;10.04;100.00
38718;BME280;24468;52.128;9.278;2023-05-16T05:56:46;100850.44;;;10.17;100.00
38718;BME280;24468;52.128;9.278;2023-05-16T05:59:12;100864.00;;;10.16;100.00
38718;BME280;24468;52.128;9.278;2023-05-16T06:01:37;100866.47;;;9.98;100.00
38718;BME280;24468;52.128;9.278;2023-05-16T06:04:04;100866.44;;;9.73;100.00
38718;BME280;24468;52.128;9.278;2023-05-16T06:06:30;100871.66;;;10.03;100.00
38718;BME280;24468;52.128;9.278;2023-05-16T06:08:56;100870.28;;;10.16;100.00
38718;BME280;24468;52.128;9.278;2023-05-16T06:11:22;100870.94;;;10.23;100.00
38718;BME280;24468;52.128;9.278;2023-05-16T06:13:50;100876.75;;;10.36;100.00
38718;BME280;24468;52.128;9.278;2023-05-16T06:16:16;100881.00;;;10.18;100.00
38718;BME280;24468;52.128;9.278;2023-05-16T06:18:41;100874.59;;;9.97;100.00
38718;BME280;24468;52.128;9.278;2023-05-16T06:21:07;100887.91;;;10.25;100.00
38718;BME280;24468;52.128;9.278;2023-05-16T06:23:33;100895.13;;;10.01;100.00
38718;BME280;24468;52.128;9.278;2023-05-16T06:25:58;100894.72;;;9.87;100.00
38718;BME280;24468;52.128;9.278;2023-05-16T06:28:24;100898.84;;;9.97;100.00
38718;BME280;24468;52.128;9.278;2023-05-16T06:30:49;100893.13;;;9.81;100.00
38718;BME280;24468;52.128;9.278;2023-05-16T06:33:18;100908.31;;;9.57;100.00
38718;BME280;24468;52.128;9.278;2023-05-16T06:35:44;100901.25;;;10.05;100.00
38718;BME280;24468;52.128;9.278;2023-05-16T06:38:09;100896.97;;;9.99;100.00
38718;BME280;24468;52.128;9.278;2023-05-16T06:40:35;100912.56;;;9.91;100.00
38718;BME280;24468;52.128;9.278;2023-05-16T06:43:00;100915.16;;;9.92;100.00
38718;BME280;24468;52.128;9.278;2023-05-16T06:45:26;100895.13;;;10.01;100.00
38718;BME280;24468;52.128;9.278;2023-05-16T06:47:51;100902.41;;;9.72;100.00
38718;BME280;24468;52.128;9.278;2023-05-16T06:50:17;100904.34;;;9.94;100.00
38718;BME280;24468;52.128;9.278;2023-05-16T06:52:42;100900.66;;;9.71;100.00
38718;BME280;24468;52.128;9.278;2023-05-16T06:55:08;100914.75;;;9.79;100.00
38718;BME280;24468;52.128;9.278;2023-05-16T06:57:34;100913.03;;;9.77;100.00
38718;BME280;24468;52.128;9.278;2023-05-16T07:00:00;100907.38;;;9.85;100.00
38718;BME280;24468;52.128;9.278;2023-05-16T07:02:25;100914.63;;;9.83;100.00
38718;BME280;24468;52.128;9.278;2023-05-16T07:04:51;100904.72;;;10.08;100.00
38718;BME280;24468;52.128;9.278;2023-05-16T07:07:16;100910.56;;;10.21;100.00
38718;BME280;24468;52.128;9.278;2023-05-16T07:09:42;100911.53;;;10.43;100.00
38718;BME280;24468;52.128;9.278;2023-05-16T07:12:08;100909.78;;;10.42;100.00
38718;BME280;24468;52.128;9.278;2023-05-16T07:14:33;100919.44;;;10.72;100.00
38718;BME280;24468;52.128;9.278;2023-05-16T07:16:59;100907.72;;;10.73;100.00
38718;BME280;24468;52.128;9.278;2023-05-16T07:19:25;100911.84;;;10.59;100.00
38718;BME280;24468;52.128;9.278;2023-05-16T07:21:50;100931.84;;;10.54;100.00
38718;BME280;24468;52.128;9.278;2023-05-16T07:24:16;100914.16;;;11.14;100.00
38718;BME280;24468;52.128;9.278;2023-05-16T07:26:42;100916.97;;;10.89;100.00
38718;BME280;24468;52.128;9.278;2023-05-16T07:29:07;100922.25;;;10.92;100.00
38718;BME280;24468;52.128;9.278;2023-05-16T07:31:33;100923.88;;;11.40;100.00
38718;BME280;24468;52.128;9.278;2023-05-16T07:33:58;100914.66;;;11.24;100.00
38718;BME280;24468;52.128;9.278;2023-05-16T07:36:24;100923.41;;;10.85;100.00
38718;BME280;24468;52.128;9.278;2023-05-16T07:38:50;100920.88;;;10.80;100.00
38718;BME280;24468;52.128;9.278;2023-05-16T07:41:15;100926.50;;;10.76;100.00
38718;BME280;24468;52.128;9.278;2023-05-16T07:43:41;100922.59;;;10.83;100.00
38718;BME280;24468;52.128;9.278;2023-05-16T07:46:06;100921.03;;;10.99;100.00
38718;BME280;24468;52.128;9.278;2023-05-16T07:48:32;100943.88;;;10.90;100.00
38718;BME280;24468;52.128;9.278;2023-05-16T07:50:57;100926.78;;;10.92;100.00
38718;BME280;24468;52.128;9.278;2023-05-16T07:53:23;100932.34;;;10.87;100.00
38718;BME280;24468;52.128;9.278;2023-05-16T07:55:49;100926.66;;;10.71;100.00
38718;BME280;24468;52.128;9.278;2023-05-16T07:58:14;100934.63;;;11.20;100.00
38718;BME280;24468;52.128;9.278;2023-05-16T08:00:40;100951.94;;;10.92;100.00
38718;BME280;24468;52.128;9.278;2023-05-16T08:03:06;100939.56;;;10.63;100.00
38718;BME280;24468;52.128;9.278;2023-05-16T08:05:31;100939.38;;;10.91;100.00
38718;BME280;24468;52.128;9.278;2023-05-16T08:07:57;100933.75;;;10.97;100.00
38718;BME280;24468;52.128;9.278;2023-05-16T08:10:23;100938.50;;;10.90;100.00
38718;BME280;24468;52.128;9.278;2023-05-16T08:12:48;100943.09;;;11.10;100.00
38718;BME280;24468;52.128;9.278;2023-05-16T08:15:14;100946.84;;;10.84;100.00
38718;BME280;24468;52.128;9.278;2023-05-16T08:17:40;100926.94;;;11.53;100.00
38718;BME280;24468;52.128;9.278;2023-05-16T08:20:06;100933.19;;;11.33;100.00
38718;BME280;24468;52.128;9.278;2023-05-16T08:22:32;100934.41;;;11.46;100.00
38718;BME280;24468;52.128;9.278;2023-05-16T08:24:58;100941.16;;;11.14;100.00
38718;BME280;24468;52.128;9.278;2023-05-16T08:27:26;100938.63;;;11.53;100.00
38718;BME280;24468;52.128;9.278;2023-05-16T08:29:52;100942.03;;;11.15;100.00
38718;BME280;24468;52.128;9.278;2023-05-16T08:32:17;100938.25;;;11.19;100.00
38718;BME280;24468;52.128;9.278;2023-05-16T08:34:43;100935.22;;;11.70;100.00
38718;BME280;24468;52.128;9.278;2023-05-16T08:37:08;100930.63;;;11.72;100.00
38718;BME280;24468;52.128;9.278;2023-05-16T08:39:37;100928.31;;;12.45;100.00
38718;BME280;24468;52.128;9.278;2023-05-16T08:42:03;100924.06;;;12.39;100.00
38718;BME280;24468;52.128;9.278;2023-05-16T08:44:29;100934.72;;;12.03;100.00
38718;BME280;24468;52.128;9.278;2023-05-16T08:46:56;100938.47;;;11.78;98.78
38718;BME280;24468;52.128;9.278;2023-05-16T08:49:22;100925.25;;;12.13;99.96
38718;BME280;24468;52.128;9.278;2023-05-16T08:51:56;100929.00;;;12.50;100.00
38718;BME280;24468;52.128;9.278;2023-05-16T08:54:22;100927.09;;;12.52;93.86
38718;BME280;24468;52.128;9.278;2023-05-16T08:56:48;100929.38;;;12.42;91.74
38718;BME280;24468;52.128;9.278;2023-05-16T08:59:15;100937.16;;;12.30;92.36
38718;BME280;24468;52.128;9.278;2023-05-16T09:01:41;100925.38;;;12.31;85.97
38718;BME280;24468;52.128;9.278;2023-05-16T09:04:08;100925.69;;;12.43;86.05
38718;BME280;24468;52.128;9.278;2023-05-16T09:06:35;100923.94;;;12.61;82.64
38718;BME280;24468;52.128;9.278;2023-05-16T09:09:01;100927.19;;;12.30;83.96
38718;BME280;24468;52.128;9.278;2023-05-16T09:11:27;100927.09;;;12.13;84.75
38718;BME280;24468;52.128;9.278;2023-05-16T09:13:53;100922.44;;;12.75;86.43
38718;BME280;24468;52.128;9.278;2023-05-16T09:16:19;100917.28;;;13.62;85.20
38718;BME280;24468;52.128;9.278;2023-05-16T09:18:57;100920.22;;;13.40;79.21
38718;BME280;24468;52.128;9.278;2023-05-16T09:21:31;100936.63;;;12.21;72.52
38718;BME280;24468;52.128;9.278;2023-05-16T09:24:05;100918.34;;;12.85;77.52
38718;BME280;24468;52.128;9.278;2023-05-16T09:26:33;100909.81;;;14.01;77.97
38718;BME280;24468;52.128;9.278;2023-05-16T09:28:58;100916.16;;;13.48;70.98
38718;BME280;24468;52.128;9.278;2023-05-16T09:31:26;100919.41;;;13.38;74.92
38718;BME280;24468;52.128;9.278;2023-05-16T09:33:57;100932.78;;;13.22;77.62
38718;BME280;24468;52.128;9.278;2023-05-16T09:36:24;100925.69;;;13.38;73.64
38718;BME280;24468;52.128;9.278;2023-05-16T09:38:51;100936.81;;;13.68;74.41
38718;BME280;24468;52.128;9.278;2023-05-16T09:41:16;100933.81;;;13.38;71.40
38718;BME280;24468;52.128;9.278;2023-05-16T09:43:43;100928.72;;;13.86;69.51
38718;BME280;24468;52.128;9.278;2023-05-16T09:46:15;100927.78;;;13.33;71.04
38718;BME280;24468;52.128;9.278;2023-05-16T09:48:46;100918.34;;;13.94;71.11
38718;BME280;24468;52.128;9.278;2023-05-16T09:51:12;100918.72;;;14.21;71.36
38718;BME280;24468;52.128;9.278;2023-05-16T09:53:39;100922.47;;;14.18;68.13
38718;BME280;24468;52.128;9.278;2023-05-16T09:56:10;100912.31;;;14.22;68.77
38718;BME280;24468;52.128;9.278;2023-05-16T09:58:40;100922.47;;;13.84;64.14
38718;BME280;24468;52.128;9.278;2023-05-16T10:01:07;100926.34;;;13.43;65.49
38718;BME280;24468;52.128;9.278;2023-05-16T10:03:39;100908.59;;;13.72;69.07
38718;BME280;24468;52.128;9.278;2023-05-16T10:06:06;100926.28;;;13.45;70.16
38718;BME280;24468;52.128;9.278;2023-05-16T10:08:33;100920.31;;;13.55;72.46
38718;BME280;24468;52.128;9.278;2023-05-16T10:11:03;100921.19;;;13.73;71.70
38718;BME280;24468;52.128;9.278;2023-05-16T10:13:32;100935.44;;;13.42;65.54
38718;BME280;24468;52.128;9.278;2023-05-16T10:16:00;100918.69;;;13.34;65.92
38718;BME280;24468;52.128;9.278;2023-05-16T10:18:31;100933.50;;;13.81;64.84
38718;BME280;24468;52.128;9.278;2023-05-16T10:21:04;100923.25;;;13.51;63.54
38718;BME280;24468;52.128;9.278;2023-05-16T10:23:32;100914.09;;;13.71;64.45
38718;BME280;24468;52.128;9.278;2023-05-16T10:26:00;100915.22;;;14.19;65.51
38718;BME280;24468;52.128;9.278;2023-05-16T10:28:27;100908.97;;;14.67;62.67
38718;BME280;24468;52.128;9.278;2023-05-16T10:30:54;100895.13;;;14.88;62.92
38718;BME280;24468;52.128;9.278;2023-05-16T10:33:20;100895.16;;;15.04;63.55
38718;BME280;24468;52.128;9.278;2023-05-16T10:35:46;100909.22;;;14.63;64.72
38718;BME280;24468;52.128;9.278;2023-05-16T10:38:17;100919.47;;;13.72;69.90
38718;BME280;24468;52.128;9.278;2023-05-16T10:40:44;100906.34;;;13.46;76.70
38718;BME280;24468;52.128;9.278;2023-05-16T10:43:23;100911.59;;;13.49;77.23
38718;BME280;24468;52.128;9.278;2023-05-16T10:46:01;100907.22;;;14.16;76.56
38718;BME280;24468;52.128;9.278;2023-05-16T10:48:30;100904.16;;;13.89;74.99
38718;BME280;24468;52.128;9.278;2023-05-16T10:50:56;100916.47;;;14.29;74.37
38718;BME280;24468;52.128;9.278;2023-05-16T11:01:34;100894.72;;;14.46;70.05
38718;BME280;24468;52.128;9.278;2023-05-16T11:04:03;100914.81;;;13.92;72.51
38718;BME280;24468;52.128;9.278;2023-05-16T11:12:00;100929.03;;;13.97;72.74
38718;BME280;24468;52.128;9.278;2023-05-16T11:19:55;100912.84;;;14.29;72.13
38718;BME280;24468;52.128;9.278;2023-05-16T11:22:34;100913.97;;;14.59;67.80
38718;BME280;24468;52.128;9.278;2023-05-16T11:25:06;100922.66;;;14.82;64.90
38718;BME280;24468;52.128;9.278;2023-05-16T11:27:35;100925.03;;;14.88;60.99
38718;BME280;24468;52.128;9.278;2023-05-16T11:32:32;100906.69;;;15.55;54.35
38718;BME280;24468;52.128;9.278;2023-05-16T11:34:58;100922.09;;;15.54;55.86
38718;BME280;24468;52.128;9.278;2023-05-16T11:37:24;100927.56;;;14.91;57.70
38718;BME280;24468;52.128;9.278;2023-05-16T11:39:49;100941.44;;;14.36;60.56
38718;BME280;24468;52.128;9.278;2023-05-16T11:42:15;100919.84;;;14.50;61.21
38718;BME280;24468;52.128;9.278;2023-05-16T11:44:42;100949.59;;;14.01;57.40
38718;BME280;24468;52.128;9.278;2023-05-16T11:47:08;100931.97;;;13.75;53.41
38718;BME280;24468;52.128;9.278;2023-05-16T11:49:34;100945.94;;;13.85;53.87
38718;BME280;24468;52.128;9.278;2023-05-16T11:52:01;100935.53;;;14.28;52.75
38718;BME280;24468;52.128;9.278;2023-05-16T11:54:27;100936.81;;;14.38;52.67
38718;BME280;24468;52.128;9.278;2023-05-16T11:56:52;100932.06;;;14.59;52.34
38718;BME280;24468;52.128;9.278;2023-05-16T11:59:18;100940.69;;;14.83;53.29
38718;BME280;24468;52.128;9.278;2023-05-16T12:01:45;100937.44;;;14.26;54.59
38718;BME280;24468;52.128;9.278;2023-05-16T12:04:15;100940.19;;;14.08;55.07
38718;BME280;24468;52.128;9.278;2023-05-16T12:06:42;100935.34;;;14.48;57.32
38718;BME280;24468;52.128;9.278;2023-05-16T12:09:13;100947.66;;;14.55;55.05
38718;BME280;24468;52.128;9.278;2023-05-16T12:11:43;100937.88;;;14.68;54.17
38718;BME280;24468;52.128;9.278;2023-05-16T12:14:11;100965.34;;;14.45;53.29
38718;BME280;24468;52.128;9.278;2023-05-16T12:16:38;100925.72;;;14.92;55.79
38718;BME280;24468;52.128;9.278;2023-05-16T12:19:04;100935.41;;;14.64;56.18
38718;BME280;24468;52.128;9.278;2023-05-16T12:21:31;100939.16;;;14.61;54.68
38718;BME280;24468;52.128;9.278;2023-05-16T12:23:57;100936.25;;;14.98;55.31
38718;BME280;24468;52.128;9.278;2023-05-16T12:26:31;100933.59;;;14.64;54.24
38718;BME280;24468;52.128;9.278;2023-05-16T12:29:02;100921.06;;;14.78;55.02
38718;BME280;24468;52.128;9.278;2023-05-16T12:31:29;100929.25;;;15.09;56.47
38718;BME280;24468;52.128;9.278;2023-05-16T12:33:56;100932.13;;;15.06;55.38
38718;BME280;24468;52.128;9.278;2023-05-16T12:36:23;100931.84;;;14.79;55.26
38718;BME280;24468;52.128;9.278;2023-05-16T12:38:50;100928.69;;;15.19;54.05
38718;BME280;24468;52.128;9.278;2023-05-16T12:41:22;100925.47;;;14.96;53.19
38718;BME280;24468;52.128;9.278;2023-05-16T12:43:48;100937.34;;;14.78;52.13
38718;BME280;24468;52.128;9.278;2023-05-16T12:46:14;100929.88;;;15.30;52.31
38718;BME280;24468;52.128;9.278;2023-05-16T12:48:40;100920.91;;;15.44;52.12
38718;BME280;24468;52.128;9.278;2023-05-16T12:51:16;100905.72;;;15.86;54.55
38718;BME280;24468;52.128;9.278;2023-05-16T12:53:47;100930.44;;;15.35;55.41
38718;BME280;24468;52.128;9.278;2023-05-16T12:56:14;100930.25;;;14.75;57.21
38718;BME280;24468;52.128;9.278;2023-05-16T12:58:43;100924.50;;;14.48;58.78
38718;BME280;24468;52.128;9.278;2023-05-16T13:01:08;100940.81;;;14.81;61.35
38718;BME280;24468;52.128;9.278;2023-05-16T13:03:34;100940.19;;;14.92;58.74
38718;BME280;24468;52.128;9.278;2023-05-16T13:06:01;100944.28;;;14.50;60.60
38718;BME280;24468;52.128;9.278;2023-05-16T13:08:28;100924.47;;;14.65;68.73
38718;BME280;24468;52.128;9.278;2023-05-16T13:10:54;100939.75;;;15.00;68.40